Airfield :
LOGIN :

Register | Disclaimer

   EN    FR    IT 

 










Legend :    VFR   Marginal VFR   IFR   Intensive IFR   Very Intensive IFR
Visi :
Ceiling :
>= 8 km
>= 3000ft
5 to 8 km
1000 to 3000 ft
1500m to 5 km
500 to 1000 ft
800 to 1500m
200 to 500 ft
< 800m
< 200 ft
Symbols :   Thunderstorms  Fog  Heavy snow  Heavy precipitations  Wind > 20 kt
SIGMETs :     Misc.  Thunderstorms  Icing  Turbulence  Mountain Waves  Volcanic Ashes






- Airport Elevation : 17 ft
- IATA code : MPL


LFMT - Montpellier Méditerranée

CURRENT METAR :
  • 250830Z AUTO 04015KT CAVOK 22/08 Q1026 NOSIG

EXPIRED METARs :
  • 250800Z AUTO 03011KT 360V060 CAVOK 22/08 Q1026 NOSIG
  • 250730Z AUTO 02014KT CAVOK 21/08 Q1026 NOSIG
  • 250700Z AUTO 02016KT CAVOK 20/07 Q1026 NOSIG
  • 250630Z AUTO 02016KT CAVOK 19/07 Q1026 NOSIG
  • 250600Z AUTO 02014KT CAVOK 18/07 Q1026 TEMPO 02015G25KT

TAF TAF LFMT
Valid from the 25 at 09:00 until the 26 at 09:00 UTC


250800Z 2509/2609 02012KT CAVOK
BECMG 2511/2513 19010KT
BECMG 2518/2520 35010KT
ATIS : +33 4 67 13 11 70



MET'MAP, your aeronautical weather chart ! - Copyright ORBIFLY December 2007 - Disclaimer

ORBIFLY MET'MAP TEAM :

Programming & Development : Alexandra Zaïnal
Concept & original design : Baudouin d'Aumeries
Assistance for programming : Marc-Olivier Méhu
Technical & hardware support : Manuel Goepfert

Contact : metmap@orbifly.com




SOURCES & CREDITS :

   NOAA